createdAt,value
2018-04-02T00:01:34.141Z,2.40
2018-04-02T00:03:35.136Z,2.40
2018-04-02T00:05:36.154Z,2.40
2018-04-02T00:07:37.271Z,2.40
2018-04-02T00:09:38.302Z,2.30
2018-04-02T00:11:40.080Z,2.20
2018-04-02T00:13:41.307Z,2.20
2018-04-02T00:15:42.704Z,2.00
2018-04-02T00:17:43.844Z,2.10
2018-04-02T00:19:44.948Z,2.10
2018-04-02T00:21:45.992Z,2.20
2018-04-02T00:23:47.052Z,2.20
2018-04-02T00:25:47.993Z,2.20
2018-04-02T00:27:49.044Z,2.20
2018-04-02T00:29:50.140Z,2.20
2018-04-02T00:31:51.140Z,2.20
2018-04-02T00:33:52.138Z,2.20
2018-04-02T00:35:53.127Z,2.20
2018-04-02T00:37:54.181Z,2.10
2018-04-02T00:39:55.209Z,2.10
2018-04-02T00:41:56.154Z,2.10
2018-04-02T00:43:57.174Z,1.90
2018-04-02T00:45:58.299Z,1.90
2018-04-02T00:47:59.326Z,1.90
2018-04-02T00:50:00.313Z,1.90
2018-04-02T00:52:01.355Z,1.80
2018-04-02T00:54:02.542Z,1.70
2018-04-02T00:56:03.550Z,1.70
2018-04-02T00:58:04.602Z,1.60
2018-04-02T01:00:05.600Z,1.60
2018-04-02T01:02:06.611Z,1.50
2018-04-02T01:04:07.599Z,1.50
2018-04-02T01:06:08.637Z,1.50
2018-04-02T01:08:09.652Z,1.50
2018-04-02T01:10:10.849Z,1.60
2018-04-02T01:12:12.060Z,1.60
2018-04-02T01:14:13.376Z,1.60
2018-04-02T01:16:16.622Z,1.60
2018-04-02T01:18:17.658Z,1.60
2018-04-02T01:20:18.729Z,1.60
2018-04-02T01:22:19.795Z,1.60
2018-04-02T01:24:21.557Z,1.70
2018-04-02T01:26:22.528Z,1.70
2018-04-02T01:28:25.131Z,1.90
2018-04-02T01:30:26.958Z,1.90
2018-04-02T01:32:28.803Z,1.90
2018-04-02T01:34:29.837Z,2.00
2018-04-02T01:36:30.951Z,2.10
2018-04-02T01:38:32.054Z,2.10
2018-04-02T01:40:33.170Z,2.10
2018-04-02T01:42:35.908Z,2.10
2018-04-02T01:44:37.017Z,2.10
2018-04-02T01:46:38.024Z,2.20
2018-04-02T01:48:40.892Z,2.20
2018-04-02T01:50:42.318Z,2.20
2018-04-02T01:52:43.426Z,2.20
2018-04-02T01:54:44.515Z,2.30
2018-04-02T01:56:45.596Z,2.30
2018-04-02T01:58:47.566Z,2.30
2018-04-02T02:00:48.590Z,2.30
2018-04-02T02:02:49.566Z,2.30
2018-04-02T02:04:50.594Z,2.30
2018-04-02T02:06:51.571Z,2.30
2018-04-02T02:08:53.551Z,2.40
2018-04-02T02:10:54.616Z,2.40
2018-04-02T02:12:55.622Z,2.40
2018-04-02T02:14:56.808Z,2.40
2018-04-02T02:16:57.912Z,2.40
2018-04-02T02:19:00.198Z,2.50
2018-04-02T02:21:01.364Z,2.50
2018-04-02T02:23:03.073Z,2.50
2018-04-02T02:25:04.418Z,2.50
2018-04-02T02:27:06.200Z,2.50
2018-04-02T02:29:07.223Z,2.50
2018-04-02T02:31:08.254Z,2.50
2018-04-02T02:33:09.323Z,2.60
2018-04-02T02:35:10.432Z,2.60
2018-04-02T02:37:11.506Z,2.60
2018-04-02T02:39:12.795Z,2.60
2018-04-02T02:41:14.526Z,2.60
2018-04-02T02:43:15.686Z,2.60
2018-04-02T02:45:16.939Z,2.60
2018-04-02T02:47:18.686Z,2.60
2018-04-02T02:49:19.823Z,2.60
2018-04-02T02:51:22.136Z,2.70
2018-04-02T02:53:23.314Z,2.60
2018-04-02T02:55:24.462Z,2.60
2018-04-02T02:57:25.462Z,2.60
2018-04-02T02:59:26.433Z,2.70
2018-04-02T03:01:27.467Z,2.70
2018-04-02T03:03:28.601Z,2.70
2018-04-02T03:05:29.772Z,2.60
2018-04-02T03:07:30.848Z,2.60
2018-04-02T03:09:31.928Z,2.70
2018-04-02T03:11:32.973Z,2.60
2018-04-02T03:13:34.877Z,2.60
2018-04-02T03:15:35.944Z,2.60
2018-04-02T03:17:36.953Z,2.60
2018-04-02T03:19:38.748Z,2.60
2018-04-02T03:21:39.751Z,2.60
2018-04-02T03:23:41.722Z,2.60
2018-04-02T03:25:42.822Z,2.60
2018-04-02T03:27:43.915Z,2.60
2018-04-02T03:29:45.096Z,2.60
2018-04-02T03:31:46.276Z,2.60
2018-04-02T03:33:47.587Z,2.50
2018-04-02T03:35:48.595Z,2.60
2018-04-02T03:37:49.608Z,2.50
2018-04-02T03:39:50.576Z,2.50
2018-04-02T03:41:51.551Z,2.50
2018-04-02T03:43:52.589Z,2.50
2018-04-02T03:45:53.634Z,2.50
2018-04-02T03:47:54.621Z,2.50
2018-04-02T03:49:56.451Z,2.50
2018-04-02T03:51:57.489Z,2.40
2018-04-02T03:53:58.633Z,2.40
2018-04-02T03:55:59.747Z,2.40
2018-04-02T03:58:01.593Z,2.30
2018-04-02T04:00:03.013Z,2.30
2018-04-02T04:02:04.749Z,2.30
2018-04-02T04:04:05.864Z,2.30
2018-04-02T04:06:07.584Z,2.20
2018-04-02T04:08:08.528Z,2.20
2018-04-02T04:10:09.556Z,2.20
2018-04-02T04:12:10.772Z,2.10
2018-04-02T04:14:12.617Z,2.10
2018-04-02T04:16:14.071Z,2.10
2018-04-02T04:18:15.566Z,2.10
2018-04-02T04:20:17.476Z,2.20
2018-04-02T04:22:18.656Z,2.20
2018-04-02T04:24:19.704Z,2.20
2018-04-02T04:26:20.703Z,2.10
2018-04-02T04:28:21.761Z,2.10
2018-04-02T04:30:22.772Z,2.20
2018-04-02T04:32:23.937Z,2.20
2018-04-02T04:34:24.957Z,2.20
2018-04-02T04:36:26.703Z,2.20
2018-04-02T04:38:27.652Z,2.20
2018-04-02T04:40:28.710Z,2.20
2018-04-02T04:42:30.061Z,2.20
2018-04-02T04:44:31.727Z,2.20
2018-04-02T04:46:32.734Z,2.20
2018-04-02T04:48:33.727Z,2.20
2018-04-02T04:50:34.747Z,2.20
2018-04-02T04:52:35.723Z,2.20
2018-04-02T04:54:38.695Z,2.20
2018-04-02T04:56:39.742Z,2.20
2018-04-02T04:58:41.237Z,2.20
2018-04-02T05:00:42.489Z,2.10
2018-04-02T05:02:44.647Z,2.10
2018-04-02T05:04:46.168Z,2.10
2018-04-02T05:06:47.720Z,2.10
2018-04-02T05:08:48.857Z,2.10
2018-04-02T05:10:49.899Z,2.20
2018-04-02T05:12:50.933Z,2.20
2018-04-02T05:14:52.021Z,2.20
2018-04-02T05:16:53.118Z,2.20
2018-04-02T05:18:54.295Z,2.30
2018-04-02T05:20:55.832Z,2.30
2018-04-02T05:22:56.836Z,2.30
2018-04-02T05:24:57.892Z,2.30
2018-04-02T05:26:59.122Z,2.30
2018-04-02T05:29:00.601Z,2.30
2018-04-02T05:31:01.867Z,2.30
2018-04-02T05:33:03.154Z,2.30
2018-04-02T05:35:04.458Z,2.30
2018-04-02T05:37:05.613Z,2.30
2018-04-02T05:39:06.782Z,2.40
2018-04-02T05:41:07.854Z,2.40
2018-04-02T05:43:08.804Z,2.40
2018-04-02T05:45:09.808Z,2.40
2018-04-02T05:47:12.095Z,2.50
2018-04-02T05:49:13.295Z,2.50
2018-04-02T05:51:15.051Z,2.60
2018-04-02T05:53:16.287Z,2.60
2018-04-02T05:55:17.417Z,2.70
2018-04-02T05:57:19.106Z,2.70
2018-04-02T05:59:20.159Z,2.70
2018-04-02T06:01:21.840Z,2.90
2018-04-02T06:03:22.836Z,2.80
2018-04-02T06:05:24.539Z,2.90
2018-04-02T06:07:25.503Z,2.90
2018-04-02T06:09:26.470Z,3.00
2018-04-02T06:11:27.422Z,3.00
2018-04-02T06:13:28.475Z,3.10
2018-04-02T06:15:29.576Z,3.10
2018-04-02T06:17:30.649Z,3.20
2018-04-02T06:19:31.707Z,3.30
2018-04-02T06:21:32.664Z,3.30
2018-04-02T06:23:33.591Z,3.30
2018-04-02T06:25:34.629Z,3.30
2018-04-02T06:27:35.591Z,3.20
2018-04-02T06:29:36.566Z,3.20
2018-04-02T06:31:38.308Z,3.20
2018-04-02T06:33:39.187Z,3.20
2018-04-02T06:35:41.142Z,3.30
2018-04-02T06:37:42.290Z,3.30
2018-04-02T06:39:43.361Z,3.40
2018-04-02T06:41:44.472Z,3.50
2018-04-02T06:43:45.778Z,3.50
2018-04-02T06:45:46.866Z,3.60
2018-04-02T06:47:47.830Z,3.70
2018-04-02T06:49:48.816Z,3.80
2018-04-02T06:51:49.759Z,3.90
2018-04-02T06:53:50.719Z,3.90
2018-04-02T06:55:51.680Z,4.10
2018-04-02T06:57:52.628Z,4.10
2018-04-02T06:59:53.787Z,4.20
2018-04-02T07:01:54.772Z,4.10
2018-04-02T07:03:56.596Z,4.10
2018-04-02T07:05:57.534Z,4.10
2018-04-02T07:07:59.561Z,4.10
2018-04-02T07:10:00.634Z,4.10
2018-04-02T07:12:01.697Z,4.10
2018-04-02T07:14:02.696Z,4.10
2018-04-02T07:16:04.520Z,4.30
2018-04-02T07:18:05.496Z,4.30
2018-04-02T07:20:06.554Z,4.40
2018-04-02T07:22:08.247Z,4.50
2018-04-02T07:24:09.191Z,4.50
2018-04-02T07:26:10.265Z,4.60
2018-04-02T07:28:11.380Z,4.60
2018-04-02T07:30:12.468Z,4.70
2018-04-02T07:32:14.446Z,4.80
2018-04-02T07:34:15.864Z,4.90
2018-04-02T07:36:17.810Z,5.40
2018-04-02T07:38:18.871Z,5.40
2018-04-02T07:40:20.030Z,5.50
2018-04-02T07:42:21.016Z,5.50
2018-04-02T07:44:22.012Z,5.50
2018-04-02T07:46:23.631Z,5.60
2018-04-02T07:48:24.595Z,5.50
2018-04-02T07:50:25.591Z,5.50
2018-04-02T07:52:26.668Z,5.60
2018-04-02T07:54:27.627Z,5.70
2018-04-02T07:56:28.577Z,5.90
2018-04-02T07:58:29.604Z,6.20
2018-04-02T08:00:30.660Z,6.60
2018-04-02T08:02:32.112Z,6.50
2018-04-02T08:04:33.062Z,6.70
2018-04-02T08:06:34.107Z,6.70
2018-04-02T08:08:36.220Z,6.50
2018-04-02T08:10:37.162Z,6.50
2018-04-02T08:12:38.881Z,6.90
2018-04-02T08:14:40.097Z,6.90
2018-04-02T08:16:43.357Z,7.50
2018-04-02T08:18:43.899Z,7.80
2018-04-02T08:20:45.728Z,8.40
2018-04-02T08:22:46.801Z,8.40
2018-04-02T08:24:47.747Z,8.40
2018-04-02T08:26:50.142Z,8.50
2018-04-02T08:28:51.858Z,8.00
2018-04-02T08:30:52.798Z,8.00
2018-04-02T08:32:53.731Z,7.90
2018-04-02T08:34:54.676Z,7.70
2018-04-02T08:36:55.651Z,7.70
2018-04-02T08:38:57.042Z,7.60
2018-04-02T08:40:58.757Z,7.50
2018-04-02T08:42:59.843Z,7.50
2018-04-02T08:45:00.910Z,7.40
2018-04-02T08:47:01.881Z,7.40
2018-04-02T08:49:09.174Z,7.40
2018-04-02T08:51:10.375Z,7.40
2018-04-02T08:53:12.447Z,8.50
2018-04-02T08:55:13.636Z,8.50
2018-04-02T08:57:14.862Z,8.80
2018-04-02T08:59:15.972Z,8.60
2018-04-02T09:01:17.007Z,8.70
2018-04-02T09:03:17.991Z,9.00
2018-04-02T09:05:19.038Z,9.10
2018-04-02T09:07:20.025Z,9.40
2018-04-02T09:09:21.720Z,10.10
2018-04-02T09:11:22.683Z,10.00
2018-04-02T09:13:23.678Z,10.70
2018-04-02T09:15:24.685Z,10.90
2018-04-02T09:17:25.643Z,11.50
2018-04-02T09:19:26.661Z,11.90
2018-04-02T09:21:27.674Z,12.20
2018-04-02T09:23:28.631Z,11.10
2018-04-02T09:25:29.671Z,11.80
2018-04-02T09:27:30.686Z,11.50
2018-04-02T09:29:31.658Z,11.80
2018-04-02T09:31:32.716Z,11.70
2018-04-02T09:33:33.712Z,11.70
2018-04-02T09:35:34.653Z,12.10
2018-04-02T09:37:35.711Z,11.10
2018-04-02T09:39:37.091Z,10.60
2018-04-02T09:41:38.951Z,9.90
2018-04-02T09:43:40.047Z,9.90
2018-04-02T09:45:41.330Z,9.90
2018-04-02T09:47:42.562Z,9.80
2018-04-02T09:49:43.781Z,9.30
2018-04-02T09:51:44.944Z,9.20
2018-04-02T09:53:46.165Z,9.10
2018-04-02T09:55:47.213Z,9.90
2018-04-02T09:57:49.055Z,10.40
2018-04-02T09:59:50.564Z,10.40
2018-04-02T10:01:51.540Z,10.20
2018-04-02T10:03:54.481Z,10.20
2018-04-02T10:05:56.272Z,9.90
2018-04-02T10:07:57.374Z,9.90
2018-04-02T10:09:59.133Z,9.90
2018-04-02T10:12:00.047Z,9.90
2018-04-02T10:14:01.023Z,10.40
2018-04-02T10:16:02.051Z,10.10
2018-04-02T10:18:03.112Z,9.40
2018-04-02T10:20:04.411Z,9.80
2018-04-02T10:22:05.371Z,9.70
2018-04-02T10:24:06.765Z,9.10
2018-04-02T10:26:07.679Z,9.40
2018-04-02T10:28:08.619Z,10.00
2018-04-02T10:30:09.555Z,9.80
2018-04-02T10:32:10.572Z,9.80
2018-04-02T10:34:11.636Z,10.10
2018-04-02T10:36:13.503Z,10.40
2018-04-02T10:38:14.490Z,10.40
2018-04-02T10:40:15.559Z,10.70
2018-04-02T10:42:16.564Z,10.50
2018-04-02T10:44:17.490Z,10.60
2018-04-02T10:46:18.459Z,10.60
2018-04-02T10:48:19.415Z,10.50
2018-04-02T10:50:20.348Z,10.10
2018-04-02T10:52:21.344Z,10.30
2018-04-02T10:54:22.294Z,10.30
2018-04-02T10:56:23.251Z,10.30
2018-04-02T10:58:24.207Z,10.30
2018-04-02T11:00:25.914Z,10.40
2018-04-02T11:02:26.868Z,10.40
2018-04-02T11:04:27.893Z,10.10
2018-04-02T11:06:29.899Z,10.00
2018-04-02T11:08:31.561Z,10.00
2018-04-02T11:10:32.040Z,9.40
2018-04-02T11:12:33.144Z,9.40
2018-04-02T11:14:34.108Z,9.70
2018-04-02T11:16:35.139Z,9.60
2018-04-02T11:18:36.189Z,9.50
2018-04-02T11:20:37.199Z,9.80
2018-04-02T11:22:38.159Z,9.90
2018-04-02T11:24:39.117Z,10.00
2018-04-02T11:26:40.100Z,10.00
2018-04-02T11:28:41.841Z,10.00
2018-04-02T11:30:42.919Z,10.00
2018-04-02T11:32:45.594Z,10.00
2018-04-02T11:34:47.277Z,10.10
2018-04-02T11:36:48.219Z,10.00
2018-04-02T11:38:50.005Z,10.00
2018-04-02T11:40:51.300Z,10.00
2018-04-02T11:42:52.488Z,10.20
2018-04-02T11:44:53.363Z,10.00
2018-04-02T11:46:54.349Z,10.00
2018-04-02T11:48:57.015Z,10.00
2018-04-02T11:50:57.971Z,10.20
2018-04-02T11:52:58.937Z,10.40
2018-04-02T11:55:01.831Z,10.60
2018-04-02T11:57:02.893Z,10.60
2018-04-02T11:59:05.549Z,10.80
2018-04-02T12:01:07.495Z,11.00
2018-04-02T12:03:08.814Z,10.80
2018-04-02T12:05:09.825Z,10.90
2018-04-02T12:07:11.685Z,11.10
2018-04-02T12:09:12.692Z,11.20
2018-04-02T12:11:13.629Z,11.60
2018-04-02T12:13:14.643Z,11.30
2018-04-02T12:15:16.328Z,11.30
2018-04-02T12:17:17.271Z,11.30
2018-04-02T12:19:18.232Z,11.70
2018-04-02T12:21:19.356Z,11.80
2018-04-02T12:23:20.463Z,11.80
2018-04-02T12:25:21.492Z,11.50
2018-04-02T12:27:22.540Z,11.50
2018-04-02T12:29:23.496Z,11.20
2018-04-02T12:31:24.456Z,11.20
2018-04-02T12:33:25.548Z,11.10
2018-04-02T12:35:26.506Z,11.30
2018-04-02T12:37:27.436Z,11.40
2018-04-02T12:39:29.127Z,11.20
2018-04-02T12:41:30.108Z,11.20
2018-04-02T12:43:31.197Z,10.90
2018-04-02T12:45:32.363Z,11.40
2018-04-02T12:47:33.470Z,11.00
2018-04-02T12:49:34.612Z,11.10
2018-04-02T12:51:35.664Z,11.20
2018-04-02T12:53:37.394Z,11.00
2018-04-02T12:55:38.336Z,11.00
2018-04-02T12:57:39.376Z,11.00
2018-04-02T12:59:40.359Z,11.10
2018-04-02T13:01:41.472Z,11.30
2018-04-02T13:03:42.431Z,11.20
2018-04-02T13:05:43.374Z,11.10
2018-04-02T13:07:44.459Z,11.10
2018-04-02T13:09:46.190Z,11.00
2018-04-02T13:11:47.181Z,11.00
2018-04-02T13:13:48.225Z,10.90
2018-04-02T13:15:49.250Z,11.10
2018-04-02T13:17:50.200Z,11.00
2018-04-02T13:19:51.227Z,11.00
2018-04-02T13:21:52.179Z,10.90
2018-04-02T13:23:53.109Z,10.90
2018-04-02T13:25:54.055Z,10.80
2018-04-02T13:27:55.007Z,10.70
2018-04-02T13:29:55.962Z,10.60
2018-04-02T13:31:56.896Z,10.50
2018-04-02T13:33:57.900Z,10.60
2018-04-02T13:35:59.736Z,10.60
2018-04-02T13:38:00.869Z,10.50
2018-04-02T13:40:01.983Z,10.60
2018-04-02T13:42:02.989Z,10.60
2018-04-02T13:44:04.056Z,10.80
2018-04-02T13:46:05.941Z,11.00
2018-04-02T13:48:06.959Z,11.00
2018-04-02T13:50:07.903Z,11.10
2018-04-02T13:52:08.851Z,11.20
2018-04-02T13:54:09.791Z,11.10
2018-04-02T13:56:10.774Z,11.20
2018-04-02T13:58:11.723Z,10.90
2018-04-02T14:00:12.666Z,10.80
2018-04-02T14:02:13.594Z,10.80
2018-04-02T14:04:15.279Z,10.70
2018-04-02T14:06:16.227Z,10.70
2018-04-02T14:08:17.259Z,10.70
2018-04-02T14:10:18.300Z,10.70
2018-04-02T14:12:20.059Z,10.70
2018-04-02T14:14:21.756Z,10.60
2018-04-02T14:16:22.710Z,10.60
2018-04-02T14:18:23.664Z,10.60
2018-04-02T14:20:24.717Z,10.60
2018-04-02T14:22:25.663Z,10.60
2018-04-02T14:24:26.595Z,10.60
2018-04-02T14:26:27.534Z,10.60
2018-04-02T14:28:28.663Z,10.50
2018-04-02T14:30:30.081Z,10.50
2018-04-02T14:32:31.339Z,10.40
2018-04-02T14:34:32.356Z,10.50
2018-04-02T14:36:33.392Z,10.50
2018-04-02T14:38:34.378Z,10.40
2018-04-02T14:40:35.356Z,10.40
2018-04-02T14:42:36.292Z,10.40
2018-04-02T14:44:37.284Z,10.50
2018-04-02T14:46:38.908Z,10.60
2018-04-02T14:48:40.614Z,10.50
2018-04-02T14:50:41.590Z,10.50
2018-04-02T14:52:42.534Z,10.60
2018-04-02T14:54:43.576Z,10.70
2018-04-02T14:56:44.868Z,10.70
2018-04-02T14:58:45.827Z,10.70
2018-04-02T15:00:46.835Z,10.80
2018-04-02T15:02:48.255Z,10.70
2018-04-02T15:04:49.215Z,10.80
2018-04-02T15:06:50.229Z,10.80
2018-04-02T15:08:51.176Z,10.70
2018-04-02T15:10:52.142Z,10.90
2018-04-02T15:12:53.197Z,10.90
2018-04-02T15:14:54.441Z,10.90
2018-04-02T15:16:55.503Z,10.80
2018-04-02T15:18:56.616Z,10.80
2018-04-02T15:20:57.675Z,10.80
2018-04-02T15:22:59.128Z,10.70
2018-04-02T15:25:00.173Z,10.80
2018-04-02T15:27:01.192Z,10.70
2018-04-02T15:29:02.904Z,10.70
2018-04-02T15:31:03.851Z,10.70
2018-04-02T15:33:04.802Z,10.60
2018-04-02T15:35:05.771Z,10.60
2018-04-02T15:37:06.712Z,10.60
2018-04-02T15:39:07.659Z,10.60
2018-04-02T15:41:08.622Z,10.60
2018-04-02T15:43:10.366Z,10.70
2018-04-02T15:45:11.316Z,10.70
2018-04-02T15:47:12.262Z,10.70
2018-04-02T15:49:14.128Z,10.80
2018-04-02T15:51:15.137Z,10.80
2018-04-02T15:53:16.080Z,10.80
2018-04-02T15:55:17.176Z,10.80
2018-04-02T15:57:18.149Z,10.70
2018-04-02T15:59:19.121Z,10.70
2018-04-02T16:01:20.628Z,10.80
2018-04-02T16:03:22.301Z,10.90
2018-04-02T16:05:23.266Z,10.90
2018-04-02T16:07:24.299Z,10.90
2018-04-02T16:09:26.062Z,10.90
2018-04-02T16:11:27.876Z,10.90
2018-04-02T16:13:28.957Z,11.00
2018-04-02T16:15:30.052Z,10.90
2018-04-02T16:17:31.080Z,11.00
2018-04-02T16:19:32.783Z,11.10
2018-04-02T16:21:33.807Z,11.10
2018-04-02T16:23:34.808Z,11.10
2018-04-02T16:25:35.802Z,11.20
2018-04-02T16:27:36.886Z,11.20
2018-04-02T16:29:37.886Z,11.20
2018-04-02T16:31:38.898Z,11.20
2018-04-02T16:33:39.834Z,11.20
2018-04-02T16:35:40.774Z,11.20
2018-04-02T16:37:41.704Z,11.10
2018-04-02T16:39:45.474Z,11.10
2018-04-02T16:41:46.548Z,11.10
2018-04-02T16:43:47.529Z,11.10
2018-04-02T16:45:48.466Z,11.00
2018-04-02T16:47:50.515Z,11.00
2018-04-02T16:49:51.480Z,10.90
2018-04-02T16:51:52.423Z,10.80
2018-04-02T16:53:53.391Z,10.80
2018-04-02T16:55:54.400Z,10.70
2018-04-02T16:57:55.410Z,10.70
2018-04-02T16:59:56.641Z,10.60
2018-04-02T17:02:04.518Z,10.60
2018-04-02T17:04:05.463Z,10.60
2018-04-02T17:06:06.544Z,10.50
2018-04-02T17:08:07.795Z,10.50
2018-04-02T17:10:09.807Z,10.50
2018-04-02T17:12:11.244Z,10.50
2018-04-02T17:14:12.280Z,10.40
2018-04-02T17:16:13.255Z,10.40
2018-04-02T17:18:14.239Z,10.40
2018-04-02T17:20:16.940Z,10.40
2018-04-02T17:22:37.231Z,10.40
2018-04-02T17:24:38.226Z,10.40
2018-04-02T17:26:44.018Z,10.40
2018-04-02T17:28:45.019Z,10.40
2018-04-02T17:30:46.775Z,10.30
2018-04-02T17:32:47.703Z,10.30
2018-04-02T17:34:48.646Z,10.30
2018-04-02T17:36:49.595Z,10.40
2018-04-02T17:38:50.622Z,10.30
2018-04-02T17:40:56.339Z,10.30
2018-04-02T17:42:58.010Z,10.30
2018-04-02T17:44:58.972Z,10.20
2018-04-02T17:46:59.912Z,10.20
2018-04-02T17:49:07.265Z,10.20
2018-04-02T17:51:09.751Z,10.20
2018-04-02T17:53:14.895Z,10.20
2018-04-02T17:55:30.919Z,10.20
2018-04-02T17:57:32.117Z,10.20
2018-04-02T17:59:33.061Z,10.10
2018-04-02T18:01:34.094Z,10.10
2018-04-02T18:03:35.027Z,10.10
2018-04-02T18:05:36.075Z,10.10
2018-04-02T18:07:37.400Z,10.20
2018-04-02T18:09:44.073Z,10.10
2018-04-02T18:11:56.072Z,10.10
2018-04-02T18:13:57.176Z,10.10
2018-04-02T18:15:58.227Z,10.10
2018-04-02T18:17:59.167Z,10.10
2018-04-02T18:20:00.112Z,10.10
2018-04-02T18:22:01.051Z,10.00
2018-04-02T18:24:02.023Z,10.00
2018-04-02T18:26:03.019Z,9.90
2018-04-02T18:28:04.710Z,9.90
2018-04-02T18:30:05.663Z,9.80
2018-04-02T18:32:10.006Z,9.80
2018-04-02T18:34:11.156Z,9.80
2018-04-02T18:36:12.188Z,9.70
2018-04-02T18:38:13.144Z,9.60
2018-04-02T18:40:14.064Z,9.60
2018-04-02T18:42:15.034Z,9.50
2018-04-02T18:44:15.987Z,9.50
2018-04-02T18:46:16.937Z,9.40
2018-04-02T18:48:17.911Z,9.40
2018-04-02T18:50:18.859Z,9.30
2018-04-02T18:52:19.782Z,9.30
2018-04-02T18:54:20.783Z,9.30
2018-04-02T18:56:21.782Z,9.20
2018-04-02T18:58:22.745Z,9.20
2018-04-02T19:00:24.439Z,9.10
2018-04-02T19:02:26.538Z,9.10
2018-04-02T19:04:27.574Z,9.10
2018-04-02T19:06:28.778Z,9.10
2018-04-02T19:08:29.767Z,9.10
2018-04-02T19:10:30.751Z,9.00
2018-04-02T19:12:32.206Z,9.00
2018-04-02T19:14:33.161Z,8.90
2018-04-02T19:16:34.123Z,8.90
2018-04-02T19:18:36.964Z,8.80
2018-04-02T19:20:38.071Z,8.80
2018-04-02T19:22:39.986Z,8.80
2018-04-02T19:24:41.088Z,8.80
2018-04-02T19:26:42.913Z,8.80
2018-04-02T19:28:43.981Z,8.70
2018-04-02T19:30:46.817Z,8.70
2018-04-02T19:32:48.523Z,8.70
2018-04-02T19:34:49.575Z,8.60
2018-04-02T19:36:50.541Z,8.60
2018-04-02T19:38:52.291Z,8.60
2018-04-02T19:40:53.391Z,8.60
2018-04-02T19:42:54.362Z,8.60
2018-04-02T19:44:55.389Z,8.60
2018-04-02T19:46:56.411Z,8.50
2018-04-02T19:48:57.423Z,8.50
2018-04-02T19:50:58.463Z,8.50
2018-04-02T19:52:59.398Z,8.50
2018-04-02T19:55:00.391Z,8.50
2018-04-02T19:57:02.111Z,8.50
2018-04-02T19:59:03.099Z,8.50
2018-04-02T20:01:04.824Z,8.40
2018-04-02T20:03:05.861Z,8.40
2018-04-02T20:05:06.930Z,8.40
2018-04-02T20:07:07.936Z,8.40
2018-04-02T20:09:09.906Z,8.50
2018-04-02T20:11:10.972Z,8.40
2018-04-02T20:13:12.862Z,8.40
2018-04-02T20:15:14.003Z,8.40
2018-04-02T20:17:14.985Z,8.40
2018-04-02T20:19:15.987Z,8.40
2018-04-02T20:21:16.971Z,8.40
2018-04-02T20:23:17.907Z,8.40
2018-04-02T20:25:19.630Z,8.30
2018-04-02T20:27:20.616Z,8.30
2018-04-02T20:29:21.607Z,8.30
2018-04-02T20:31:24.544Z,8.30
2018-04-02T20:33:25.636Z,8.30
2018-04-02T20:35:26.739Z,8.40
2018-04-02T20:37:27.799Z,8.40
2018-04-02T20:39:33.569Z,8.40
2018-04-02T20:41:34.702Z,8.50
2018-04-02T20:43:36.683Z,8.40
2018-04-02T20:47:53.049Z,8.50
2018-04-02T20:49:54.028Z,8.50
2018-04-02T20:51:57.918Z,8.50
2018-04-02T20:53:59.104Z,8.60
2018-04-02T20:56:00.072Z,8.50
2018-04-02T20:58:01.064Z,8.50
2018-04-02T21:00:02.878Z,8.60
2018-04-02T21:02:03.971Z,8.50
2018-04-02T21:04:04.903Z,8.50
2018-04-02T21:06:06.313Z,8.60
2018-04-02T21:08:07.347Z,8.60
2018-04-02T21:10:08.454Z,8.60
2018-04-02T21:12:09.624Z,8.60
2018-04-02T21:14:17.541Z,8.60
2018-04-02T21:16:18.596Z,8.60
2018-04-02T21:18:19.556Z,8.60
2018-04-02T21:20:20.572Z,8.60
2018-04-02T21:22:21.502Z,8.50
2018-04-02T21:24:23.300Z,8.50
2018-04-02T21:28:33.388Z,8.40
2018-04-02T21:30:34.411Z,8.40
2018-04-02T21:32:37.323Z,8.40
2018-04-02T21:34:38.396Z,8.40
2018-04-02T21:36:39.445Z,8.40
2018-04-02T21:38:40.468Z,8.40
2018-04-02T21:40:41.711Z,8.40
2018-04-02T21:42:43.324Z,8.90
2018-04-02T21:44:44.424Z,9.10
2018-04-02T21:46:45.751Z,9.20
2018-04-02T21:48:47.326Z,9.40
2018-04-02T21:50:49.757Z,9.50
2018-04-02T21:52:50.772Z,9.40
2018-04-02T21:54:51.748Z,9.50
2018-04-02T21:56:56.630Z,9.50
2018-04-02T21:58:58.077Z,9.50
2018-04-02T22:00:59.040Z,9.40
2018-04-02T22:03:01.591Z,9.60
2018-04-02T22:05:02.551Z,9.50
2018-04-02T22:07:03.519Z,9.60
2018-04-02T22:09:04.515Z,9.70
2018-04-02T22:11:05.445Z,9.70
2018-04-02T22:13:06.560Z,9.60
2018-04-02T22:15:07.623Z,9.70
2018-04-02T22:17:08.931Z,9.70
2018-04-02T22:19:10.025Z,9.80
2018-04-02T22:21:11.104Z,9.80
2018-04-02T22:23:12.118Z,9.80
2018-04-02T22:25:13.206Z,9.90
2018-04-02T22:27:14.211Z,9.90
2018-04-02T22:29:17.650Z,9.90
2018-04-02T22:31:18.728Z,9.80
2018-04-02T22:33:20.462Z,9.90
2018-04-02T22:35:21.535Z,9.80
2018-04-02T22:37:23.252Z,9.70
2018-04-02T22:39:24.384Z,9.70
2018-04-02T22:41:26.282Z,9.60
2018-04-02T22:43:28.142Z,9.60
2018-04-02T22:45:29.096Z,9.50
2018-04-02T22:47:30.092Z,9.50
2018-04-02T22:49:31.064Z,9.40
2018-04-02T22:51:32.018Z,9.30
2018-04-02T22:53:32.966Z,9.30
2018-04-02T22:55:34.112Z,9.20
2018-04-02T22:57:35.914Z,9.10
2018-04-02T22:59:37.718Z,9.10
2018-04-02T23:01:38.794Z,9.10
2018-04-02T23:03:39.897Z,9.00
2018-04-02T23:05:41.016Z,9.00
2018-04-02T23:07:42.862Z,9.10
2018-04-02T23:09:43.803Z,9.10
2018-04-02T23:11:44.767Z,9.20
2018-04-02T23:13:47.825Z,9.20
2018-04-02T23:15:48.830Z,9.20
2018-04-02T23:17:52.552Z,9.30
2018-04-02T23:19:53.597Z,9.20
2018-04-02T23:21:54.599Z,9.20
2018-04-02T23:23:55.637Z,9.20
2018-04-02T23:25:56.673Z,9.20
2018-04-02T23:27:57.704Z,9.20
2018-04-02T23:29:58.663Z,9.30
2018-04-02T23:31:59.599Z,9.30
2018-04-02T23:34:00.615Z,9.30
2018-04-02T23:36:01.559Z,9.30
2018-04-02T23:38:06.800Z,9.20
2018-04-02T23:40:08.044Z,9.20
2018-04-02T23:42:09.215Z,9.10
2018-04-02T23:44:10.355Z,9.10
2018-04-02T23:46:11.416Z,9.10
2018-04-02T23:48:13.264Z,9.10
2018-04-02T23:50:15.772Z,9.20
2018-04-02T23:52:18.792Z,9.20
2018-04-02T23:54:19.880Z,9.20
2018-04-02T23:56:20.840Z,9.20
2018-04-02T23:58:21.789Z,9.20
